AAL349 MRLB-KPHL
Flight info
| Callsign | AAL349 |
|---|---|
| Flight time | 4h 41m |
| Altitude | 34000 |
| Route | GUARD2 IMOLA UM328 SELEK UL345 IKBIX Y183 PEAKY Q87 JROSS Q409 OYVAY |
| Aircraft | A321/M-SDE3FGHIRWY/LB1 |
Departure
| Time | 2026-04-25 10:31 |
|---|---|
| Airport | Daniel Oduber Quirós International Airport (MRLB) |
Arrival
| Time | 2026-04-25 15:12 |
|---|---|
| Airport | Philadelphia International Airport (KPHL) |
| Time | Latitude | Longitude | Altitude | Speed | Heading |
|---|---|---|---|---|---|
| 2026-04-25 09:47 | 10.59982 | -85.53565 | 274 ft | 0 kts | 339° |
| 2026-04-25 10:21 | 10.59964 | -85.53558 | 272 ft | 4 kts | 339° |
| 2026-04-25 10:21 | 10.59935 | -85.53548 | 274 ft | 4 kts | 342° |
| 2026-04-25 10:22 | 10.59909 | -85.53541 | 275 ft | 4 kts | 352° |
| 2026-04-25 10:22 | 10.59891 | -85.53539 | 273 ft | 4 kts | 1° |
| 2026-04-25 10:22 | 10.59879 | -85.53540 | 280 ft | 0 kts | 4° |
| 2026-04-25 10:26 | 10.59880 | -85.53539 | 270 ft | 0 kts | 13° |
| 2026-04-25 10:27 | 10.59887 | -85.53531 | 273 ft | 5 kts | 50° |
| 2026-04-25 10:27 | 10.59918 | -85.53470 | 274 ft | 13 kts | 68° |
| 2026-04-25 10:27 | 10.59944 | -85.53394 | 274 ft | 10 kts | 81° |
| 2026-04-25 10:28 | 10.59922 | -85.53339 | 273 ft | 8 kts | 137° |
| 2026-04-25 10:28 | 10.59891 | -85.53325 | 275 ft | 2 kts | 182° |
| 2026-04-25 10:28 | 10.59864 | -85.53319 | 274 ft | 7 kts | 163° |
| 2026-04-25 10:28 | 10.59821 | -85.53305 | 274 ft | 0 kts | 165° |
| 2026-04-25 10:29 | 10.59802 | -85.53300 | 273 ft | 11 kts | 171° |
| 2026-04-25 10:29 | 10.59735 | -85.53347 | 273 ft | 11 kts | 243° |
| 2026-04-25 10:30 | 10.59728 | -85.53363 | 273 ft | 0 kts | 249° |
| 2026-04-25 10:30 | 10.59727 | -85.53366 | 272 ft | 7 kts | 249° |
| 2026-04-25 10:30 | 10.59615 | -85.53667 | 273 ft | 81 kts | 250° |
| 2026-04-25 10:30 | 10.59349 | -85.54400 | 264 ft | 140 kts | 250° |
| 2026-04-25 10:31 | 10.58960 | -85.55468 | 412 ft | 171 kts | 248° |
| 2026-04-25 10:31 | 10.58529 | -85.56559 | 1124 ft | 166 kts | 246° |
| 2026-04-25 10:31 | 10.58100 | -85.57649 | 1726 ft | 166 kts | 246° |
| 2026-04-25 10:31 | 10.57663 | -85.58756 | 2125 ft | 174 kts | 246° |
| 2026-04-25 10:32 | 10.57184 | -85.59960 | 2269 ft | 193 kts | 246° |
| 2026-04-25 10:32 | 10.56662 | -85.61277 | 2413 ft | 209 kts | 246° |
| 2026-04-25 10:32 | 10.56085 | -85.62696 | 2528 ft | 225 kts | 242° |
| 2026-04-25 10:32 | 10.54974 | -85.63855 | 2636 ft | 242 kts | 203° |
| 2026-04-25 10:33 | 10.53273 | -85.64063 | 2856 ft | 258 kts | 166° |
| 2026-04-25 10:33 | 10.51739 | -85.63158 | 3289 ft | 266 kts | 131° |
| 2026-04-25 10:33 | 10.50959 | -85.61429 | 3777 ft | 273 kts | 95° |
| 2026-04-25 10:33 | 10.51268 | -85.59565 | 4278 ft | 277 kts | 61° |
| 2026-04-25 10:34 | 10.52541 | -85.58113 | 4780 ft | 279 kts | 34° |
| 2026-04-25 10:34 | 10.54217 | -85.57116 | 5311 ft | 281 kts | 25° |
| 2026-04-25 10:34 | 10.55982 | -85.56254 | 5862 ft | 282 kts | 24° |
| 2026-04-25 10:34 | 10.57773 | -85.55424 | 6399 ft | 283 kts | 16° |
| 2026-04-25 10:35 | 10.59712 | -85.55170 | 6876 ft | 283 kts | 355° |
| 2026-04-25 10:35 | 10.61632 | -85.55573 | 7352 ft | 283 kts | 338° |
| 2026-04-25 10:35 | 10.63469 | -85.56318 | 7848 ft | 285 kts | 338° |
| 2026-04-25 10:35 | 10.65314 | -85.57059 | 8339 ft | 286 kts | 338° |
| 2026-04-25 10:36 | 10.67174 | -85.57801 | 8811 ft | 288 kts | 338° |
| 2026-04-25 10:36 | 10.69049 | -85.58550 | 9279 ft | 290 kts | 338° |
| 2026-04-25 10:36 | 10.70934 | -85.59307 | 9768 ft | 292 kts | 338° |
| 2026-04-25 10:36 | 10.72831 | -85.60074 | 10113 ft | 298 kts | 338° |
| 2026-04-25 10:37 | 10.74804 | -85.60873 | 10219 ft | 312 kts | 338° |
| 2026-04-25 10:37 | 10.76862 | -85.61709 | 10342 ft | 325 kts | 338° |
| 2026-04-25 10:37 | 10.78975 | -85.62568 | 10457 ft | 337 kts | 338° |
| 2026-04-25 10:37 | 10.81222 | -85.63481 | 10579 ft | 349 kts | 338° |
| 2026-04-25 10:38 | 10.83515 | -85.64412 | 10701 ft | 361 kts | 338° |
| 2026-04-25 10:38 | 10.85847 | -85.65360 | 10875 ft | 369 kts | 338° |
| 2026-04-25 10:38 | 10.88249 | -85.66336 | 11219 ft | 373 kts | 338° |
| 2026-04-25 10:38 | 10.90662 | -85.67319 | 11587 ft | 375 kts | 338° |
| 2026-04-25 10:39 | 10.93091 | -85.68309 | 11955 ft | 377 kts | 338° |
| 2026-04-25 10:39 | 10.95539 | -85.69306 | 12335 ft | 379 kts | 338° |
| 2026-04-25 10:39 | 10.97985 | -85.70300 | 12711 ft | 381 kts | 338° |
| 2026-04-25 10:39 | 11.00453 | -85.71302 | 13057 ft | 383 kts | 338° |
| 2026-04-25 10:40 | 11.02939 | -85.72310 | 13411 ft | 385 kts | 338° |
| 2026-04-25 10:40 | 11.05433 | -85.73321 | 13761 ft | 387 kts | 338° |
| 2026-04-25 10:40 | 11.07942 | -85.74342 | 14053 ft | 389 kts | 338° |
| 2026-04-25 10:40 | 11.10469 | -85.75372 | 14343 ft | 391 kts | 338° |
| 2026-04-25 10:41 | 11.12997 | -85.76405 | 14645 ft | 393 kts | 338° |
| 2026-04-25 10:41 | 11.15539 | -85.77443 | 14932 ft | 395 kts | 338° |
| 2026-04-25 10:41 | 11.18098 | -85.78486 | 15212 ft | 397 kts | 338° |
| 2026-04-25 10:41 | 11.20666 | -85.79532 | 15491 ft | 398 kts | 338° |
| 2026-04-25 10:42 | 11.23242 | -85.80580 | 15755 ft | 400 kts | 338° |
| 2026-04-25 10:42 | 11.25836 | -85.81631 | 15996 ft | 402 kts | 338° |
| 2026-04-25 10:42 | 11.28442 | -85.82683 | 16248 ft | 403 kts | 338° |
| 2026-04-25 10:42 | 11.31054 | -85.83735 | 16495 ft | 404 kts | 338° |
| 2026-04-25 10:43 | 11.33676 | -85.84791 | 16707 ft | 406 kts | 338° |
| 2026-04-25 10:43 | 11.36276 | -85.85840 | 16923 ft | 408 kts | 338° |
| 2026-04-25 10:43 | 11.38919 | -85.86912 | 17139 ft | 409 kts | 338° |
| 2026-04-25 10:43 | 11.41565 | -85.87986 | 17341 ft | 411 kts | 338° |
| 2026-04-25 10:44 | 11.44223 | -85.89067 | 17541 ft | 412 kts | 338° |
| 2026-04-25 10:44 | 11.46894 | -85.90151 | 17741 ft | 414 kts | 338° |
| 2026-04-25 10:44 | 11.49572 | -85.91238 | 17935 ft | 415 kts | 338° |
| 2026-04-25 10:44 | 11.52262 | -85.92330 | 18127 ft | 417 kts | 337° |
| 2026-04-25 10:45 | 11.54960 | -85.93424 | 18302 ft | 418 kts | 338° |
| 2026-04-25 10:45 | 11.57668 | -85.94519 | 18483 ft | 419 kts | 338° |
| 2026-04-25 10:45 | 11.60382 | -85.95618 | 18666 ft | 420 kts | 338° |
| 2026-04-25 10:45 | 11.63096 | -85.96718 | 18853 ft | 420 kts | 338° |
| 2026-04-25 10:46 | 11.65816 | -85.97823 | 19029 ft | 421 kts | 338° |
| 2026-04-25 10:46 | 11.68544 | -85.98933 | 19225 ft | 422 kts | 338° |
| 2026-04-25 10:46 | 11.71271 | -86.00044 | 19438 ft | 422 kts | 338° |
| 2026-04-25 10:46 | 11.74000 | -86.01155 | 19631 ft | 423 kts | 338° |
| 2026-04-25 10:47 | 11.76738 | -86.02269 | 19813 ft | 424 kts | 338° |
| 2026-04-25 10:47 | 11.79480 | -86.03382 | 20042 ft | 424 kts | 338° |
| 2026-04-25 10:47 | 11.82199 | -86.04486 | 20221 ft | 425 kts | 338° |
| 2026-04-25 10:47 | 11.84950 | -86.05604 | 20420 ft | 426 kts | 338° |
| 2026-04-25 10:48 | 11.87705 | -86.06727 | 20624 ft | 427 kts | 338° |
| 2026-04-25 10:48 | 11.90478 | -86.07858 | 20796 ft | 429 kts | 338° |
| 2026-04-25 10:48 | 11.93248 | -86.08985 | 20991 ft | 430 kts | 338° |
| 2026-04-25 10:48 | 11.96030 | -86.10115 | 21166 ft | 431 kts | 339° |
| 2026-04-25 10:49 | 11.98815 | -86.11245 | 21352 ft | 432 kts | 339° |
| 2026-04-25 10:49 | 12.01609 | -86.12381 | 21537 ft | 433 kts | 338° |
| 2026-04-25 10:49 | 12.04412 | -86.13523 | 21765 ft | 433 kts | 338° |
| 2026-04-25 10:49 | 12.07217 | -86.14667 | 21974 ft | 434 kts | 339° |
| 2026-04-25 10:50 | 12.10073 | -86.15671 | 22162 ft | 434 kts | 347° |
| 2026-04-25 10:50 | 12.13057 | -86.16137 | 22345 ft | 435 kts | 357° |
| 2026-04-25 10:50 | 12.16089 | -86.16016 | 22521 ft | 436 kts | 8° |
| 2026-04-25 10:50 | 12.19005 | -86.15325 | 22694 ft | 437 kts | 18° |
| 2026-04-25 10:51 | 12.21877 | -86.14176 | 22866 ft | 439 kts | 21° |
| 2026-04-25 10:51 | 12.24672 | -86.13018 | 23039 ft | 439 kts | 21° |
| 2026-04-25 10:51 | 12.27545 | -86.11826 | 23216 ft | 440 kts | 21° |
| 2026-04-25 10:51 | 12.30348 | -86.10666 | 23377 ft | 441 kts | 21° |
| 2026-04-25 10:52 | 12.33190 | -86.09492 | 23543 ft | 442 kts | 21° |
| 2026-04-25 10:52 | 12.36049 | -86.08313 | 23683 ft | 443 kts | 21° |
| 2026-04-25 10:52 | 12.38907 | -86.07133 | 23827 ft | 443 kts | 21° |
| 2026-04-25 10:52 | 12.41774 | -86.05950 | 23977 ft | 444 kts | 21° |
| 2026-04-25 10:53 | 12.44648 | -86.04764 | 24119 ft | 445 kts | 21° |
| 2026-04-25 10:53 | 12.47522 | -86.03577 | 24274 ft | 446 kts | 21° |
| 2026-04-25 10:53 | 12.50405 | -86.02384 | 24415 ft | 447 kts | 21° |
| 2026-04-25 10:53 | 12.53288 | -86.01192 | 24547 ft | 448 kts | 21° |
| 2026-04-25 10:54 | 12.56181 | -85.99995 | 24675 ft | 449 kts | 21° |
| 2026-04-25 10:54 | 12.58102 | -85.99202 | 24768 ft | 450 kts | 21° |
| 2026-04-25 10:54 | 12.61991 | -85.97593 | 24960 ft | 451 kts | 21° |
| 2026-04-25 10:54 | 12.64903 | -85.96385 | 25093 ft | 452 kts | 21° |
| 2026-04-25 10:55 | 12.67819 | -85.95176 | 25229 ft | 453 kts | 21° |
| 2026-04-25 10:55 | 12.70711 | -85.93979 | 25363 ft | 454 kts | 21° |
| 2026-04-25 10:55 | 12.73647 | -85.92765 | 25498 ft | 455 kts | 21° |
| 2026-04-25 10:55 | 12.76582 | -85.91553 | 25634 ft | 456 kts | 21° |
| 2026-04-25 10:56 | 12.79528 | -85.90338 | 25770 ft | 457 kts | 21° |
| 2026-04-25 10:56 | 12.82480 | -85.89118 | 25892 ft | 458 kts | 21° |
| 2026-04-25 10:56 | 12.85431 | -85.87893 | 26011 ft | 458 kts | 21° |
| 2026-04-25 10:56 | 12.88391 | -85.86661 | 26138 ft | 459 kts | 21° |
| 2026-04-25 10:57 | 12.91351 | -85.85427 | 26271 ft | 460 kts | 21° |
| 2026-04-25 10:57 | 12.94321 | -85.84192 | 26390 ft | 461 kts | 21° |
| 2026-04-25 10:57 | 12.97294 | -85.82959 | 26511 ft | 461 kts | 21° |
| 2026-04-25 10:57 | 13.00275 | -85.81724 | 26623 ft | 462 kts | 21° |
| 2026-04-25 10:58 | 13.03261 | -85.80485 | 26758 ft | 463 kts | 21° |
| 2026-04-25 10:58 | 13.06242 | -85.79248 | 26873 ft | 463 kts | 21° |
| 2026-04-25 10:58 | 13.09214 | -85.77976 | 26995 ft | 463 kts | 22° |
| 2026-04-25 10:58 | 13.12169 | -85.76638 | 27121 ft | 464 kts | 23° |
| 2026-04-25 10:59 | 13.15107 | -85.75260 | 27233 ft | 464 kts | 24° |
| 2026-04-25 10:59 | 13.18035 | -85.73866 | 27361 ft | 464 kts | 24° |
| 2026-04-25 10:59 | 13.20968 | -85.72471 | 27472 ft | 465 kts | 24° |
| 2026-04-25 10:59 | 13.23907 | -85.71086 | 27586 ft | 465 kts | 23° |
| 2026-04-25 11:00 | 13.26852 | -85.69714 | 27718 ft | 465 kts | 23° |
| 2026-04-25 11:00 | 13.29801 | -85.68348 | 27839 ft | 465 kts | 23° |
| 2026-04-25 11:00 | 13.32759 | -85.66983 | 27964 ft | 465 kts | 23° |
| 2026-04-25 11:00 | 13.35672 | -85.65641 | 28087 ft | 466 kts | 23° |
| 2026-04-25 11:01 | 13.38629 | -85.64278 | 28213 ft | 466 kts | 23° |
| 2026-04-25 11:01 | 13.41588 | -85.62916 | 28339 ft | 466 kts | 23° |
| 2026-04-25 11:01 | 13.44538 | -85.61554 | 28465 ft | 465 kts | 23° |
| 2026-04-25 11:01 | 13.47491 | -85.60184 | 28590 ft | 465 kts | 23° |
| 2026-04-25 11:02 | 13.50438 | -85.58812 | 28718 ft | 465 kts | 23° |
| 2026-04-25 11:02 | 13.53391 | -85.57438 | 28832 ft | 465 kts | 23° |
| 2026-04-25 11:02 | 13.56335 | -85.56069 | 28961 ft | 465 kts | 23° |
| 2026-04-25 11:02 | 13.59281 | -85.54699 | 29090 ft | 464 kts | 23° |
| 2026-04-25 11:03 | 13.62223 | -85.53336 | 29216 ft | 464 kts | 22° |
| 2026-04-25 11:03 | 13.65165 | -85.51975 | 29348 ft | 464 kts | 22° |
| 2026-04-25 11:03 | 13.68110 | -85.50614 | 29477 ft | 463 kts | 22° |
| 2026-04-25 11:03 | 13.71049 | -85.49250 | 29608 ft | 463 kts | 23° |
| 2026-04-25 11:04 | 13.73988 | -85.47882 | 29744 ft | 463 kts | 23° |
| 2026-04-25 11:04 | 13.76921 | -85.46515 | 29903 ft | 462 kts | 23° |
| 2026-04-25 11:04 | 13.79848 | -85.45154 | 29946 ft | 461 kts | 23° |
| 2026-04-25 11:05 | 13.85642 | -85.42451 | 29936 ft | 460 kts | 22° |
| 2026-04-25 11:05 | 13.91476 | -85.39738 | 29931 ft | 459 kts | 22° |
| 2026-04-25 11:06 | 13.97306 | -85.37021 | 29927 ft | 460 kts | 22° |
| 2026-04-25 11:06 | 14.03142 | -85.34309 | 29923 ft | 459 kts | 22° |
| 2026-04-25 11:07 | 14.08968 | -85.31599 | 29925 ft | 459 kts | 22° |
| 2026-04-25 11:07 | 14.14787 | -85.28888 | 29924 ft | 459 kts | 22° |
| 2026-04-25 11:08 | 14.20571 | -85.26186 | 29923 ft | 459 kts | 22° |
| 2026-04-25 11:08 | 14.26389 | -85.23472 | 29927 ft | 459 kts | 22° |
| 2026-04-25 11:09 | 14.32212 | -85.20755 | 29913 ft | 459 kts | 22° |
| 2026-04-25 11:09 | 14.38038 | -85.18035 | 29917 ft | 459 kts | 22° |
| 2026-04-25 11:10 | 14.43855 | -85.15314 | 29918 ft | 459 kts | 22° |
| 2026-04-25 11:10 | 14.49648 | -85.12602 | 29921 ft | 460 kts | 22° |
| 2026-04-25 11:11 | 14.55476 | -85.09874 | 29918 ft | 460 kts | 22° |
| 2026-04-25 11:11 | 14.61303 | -85.07138 | 29919 ft | 460 kts | 22° |
| 2026-04-25 11:12 | 14.67126 | -85.04408 | 29920 ft | 460 kts | 22° |
| 2026-04-25 11:12 | 14.71972 | -85.02146 | 29922 ft | 459 kts | 22° |
| 2026-04-25 11:13 | 14.77795 | -84.99421 | 29919 ft | 459 kts | 22° |
| 2026-04-25 11:13 | 14.84557 | -84.96240 | 29918 ft | 459 kts | 22° |
| 2026-04-25 11:14 | 14.89422 | -84.93954 | 29914 ft | 459 kts | 22° |
| 2026-04-25 11:14 | 14.95200 | -84.91235 | 29898 ft | 460 kts | 22° |
| 2026-04-25 11:15 | 15.01029 | -84.88499 | 29900 ft | 460 kts | 22° |
| 2026-04-25 11:15 | 15.06866 | -84.85748 | 29902 ft | 460 kts | 22° |
| 2026-04-25 11:16 | 15.15623 | -84.81631 | 29891 ft | 461 kts | 22° |
| 2026-04-25 11:16 | 15.21454 | -84.78880 | 29897 ft | 461 kts | 22° |
| 2026-04-25 11:17 | 15.27295 | -84.76131 | 29896 ft | 461 kts | 22° |
| 2026-04-25 11:17 | 15.33136 | -84.73376 | 29888 ft | 462 kts | 22° |
| 2026-04-25 11:18 | 15.38951 | -84.70626 | 29894 ft | 462 kts | 22° |
| 2026-04-25 11:18 | 15.44807 | -84.67863 | 29889 ft | 462 kts | 22° |
| 2026-04-25 11:19 | 15.50653 | -84.65091 | 29883 ft | 462 kts | 22° |
| 2026-04-25 11:19 | 15.56504 | -84.62329 | 29889 ft | 462 kts | 21° |
| 2026-04-25 11:20 | 15.62362 | -84.59567 | 29888 ft | 462 kts | 21° |
| 2026-04-25 11:20 | 15.68219 | -84.56799 | 29887 ft | 462 kts | 21° |
| 2026-04-25 11:21 | 15.74071 | -84.54030 | 29877 ft | 462 kts | 21° |
| 2026-04-25 11:21 | 15.79891 | -84.51267 | 29884 ft | 462 kts | 21° |
| 2026-04-25 11:22 | 15.84794 | -84.48938 | 29890 ft | 462 kts | 21° |
| 2026-04-25 11:22 | 15.91603 | -84.45710 | 29888 ft | 462 kts | 21° |
| 2026-04-25 11:23 | 15.97456 | -84.42934 | 29900 ft | 462 kts | 21° |
| 2026-04-25 11:23 | 16.03309 | -84.40151 | 29884 ft | 462 kts | 21° |
| 2026-04-25 11:24 | 16.09153 | -84.37368 | 29885 ft | 462 kts | 21° |
| 2026-04-25 11:24 | 16.14965 | -84.34603 | 29886 ft | 462 kts | 21° |
| 2026-04-25 11:25 | 16.20815 | -84.31815 | 29887 ft | 462 kts | 21° |
| 2026-04-25 11:25 | 16.26658 | -84.29041 | 29885 ft | 462 kts | 21° |
| 2026-04-25 11:26 | 16.32509 | -84.26261 | 29889 ft | 462 kts | 21° |
| 2026-04-25 11:26 | 16.38356 | -84.23468 | 29885 ft | 462 kts | 21° |
| 2026-04-25 11:27 | 16.44204 | -84.20680 | 29886 ft | 462 kts | 21° |
| 2026-04-25 11:27 | 16.49059 | -84.18361 | 29886 ft | 462 kts | 21° |
| 2026-04-25 11:28 | 16.55906 | -84.15086 | 29885 ft | 462 kts | 21° |
| 2026-04-25 11:28 | 16.61708 | -84.12314 | 29899 ft | 462 kts | 21° |
| 2026-04-25 11:29 | 16.67553 | -84.09513 | 29893 ft | 462 kts | 21° |
| 2026-04-25 11:29 | 16.73397 | -84.06705 | 29893 ft | 462 kts | 21° |
| 2026-04-25 11:30 | 16.79243 | -84.03908 | 29894 ft | 462 kts | 21° |
| 2026-04-25 11:30 | 16.85093 | -84.01110 | 29893 ft | 462 kts | 21° |
| 2026-04-25 11:31 | 16.90944 | -83.98308 | 29894 ft | 462 kts | 21° |
| 2026-04-25 11:31 | 16.96788 | -83.95488 | 29901 ft | 462 kts | 21° |
| 2026-04-25 11:32 | 17.02639 | -83.92663 | 29893 ft | 463 kts | 21° |
| 2026-04-25 11:32 | 17.08491 | -83.89834 | 29895 ft | 463 kts | 21° |
| 2026-04-25 11:33 | 17.14308 | -83.87019 | 29888 ft | 464 kts | 21° |
| 2026-04-25 11:33 | 17.20162 | -83.84186 | 29889 ft | 464 kts | 21° |
| 2026-04-25 11:34 | 17.26022 | -83.81344 | 29892 ft | 464 kts | 21° |
| 2026-04-25 11:34 | 17.31882 | -83.78494 | 29904 ft | 464 kts | 21° |
| 2026-04-25 11:35 | 17.37744 | -83.75657 | 29898 ft | 464 kts | 21° |
| 2026-04-25 11:35 | 17.43615 | -83.72823 | 29896 ft | 464 kts | 21° |
| 2026-04-25 11:36 | 17.49483 | -83.69975 | 29895 ft | 465 kts | 21° |
| 2026-04-25 11:36 | 17.55307 | -83.67134 | 29895 ft | 465 kts | 21° |
| 2026-04-25 11:37 | 17.61172 | -83.64282 | 29901 ft | 465 kts | 21° |
| 2026-04-25 11:37 | 17.67043 | -83.61428 | 29906 ft | 465 kts | 20° |
| 2026-04-25 11:38 | 17.72910 | -83.58570 | 29901 ft | 465 kts | 20° |
| 2026-04-25 11:38 | 17.78788 | -83.55710 | 29899 ft | 466 kts | 20° |
| 2026-04-25 11:39 | 17.84672 | -83.52843 | 29902 ft | 466 kts | 20° |
| 2026-04-25 11:39 | 17.90548 | -83.49969 | 29903 ft | 466 kts | 20° |
| 2026-04-25 11:40 | 17.96422 | -83.47093 | 29903 ft | 465 kts | 20° |
| 2026-04-25 11:40 | 18.02264 | -83.44232 | 29905 ft | 465 kts | 20° |
| 2026-04-25 11:41 | 18.08135 | -83.41365 | 29904 ft | 465 kts | 20° |
| 2026-04-25 11:41 | 18.14005 | -83.38496 | 29905 ft | 465 kts | 20° |
| 2026-04-25 11:42 | 18.19882 | -83.35618 | 29902 ft | 465 kts | 20° |
| 2026-04-25 11:42 | 18.25750 | -83.32741 | 29903 ft | 465 kts | 20° |
| 2026-04-25 11:43 | 18.31620 | -83.29857 | 29925 ft | 465 kts | 20° |
| 2026-04-25 11:43 | 18.37501 | -83.26978 | 29907 ft | 466 kts | 20° |
| 2026-04-25 11:44 | 18.43377 | -83.24087 | 29905 ft | 466 kts | 20° |
| 2026-04-25 11:44 | 18.49227 | -83.21211 | 29906 ft | 467 kts | 20° |
| 2026-04-25 11:45 | 18.55146 | -83.18292 | 29900 ft | 467 kts | 20° |
| 2026-04-25 11:45 | 18.60994 | -83.15412 | 29905 ft | 467 kts | 20° |
| 2026-04-25 11:46 | 18.66875 | -83.12517 | 29916 ft | 467 kts | 20° |
| 2026-04-25 11:46 | 18.72759 | -83.09614 | 29906 ft | 467 kts | 20° |
| 2026-04-25 11:47 | 18.78660 | -83.06694 | 29908 ft | 468 kts | 20° |
| 2026-04-25 11:47 | 18.84566 | -83.03776 | 29903 ft | 468 kts | 20° |
| 2026-04-25 11:48 | 18.90467 | -83.00870 | 29905 ft | 468 kts | 20° |
| 2026-04-25 11:48 | 18.96369 | -82.97955 | 29909 ft | 468 kts | 20° |
| 2026-04-25 11:49 | 19.02266 | -82.95026 | 29925 ft | 468 kts | 20° |
| 2026-04-25 11:49 | 19.08131 | -82.92118 | 29916 ft | 468 kts | 20° |
| 2026-04-25 11:50 | 19.14043 | -82.89187 | 29916 ft | 469 kts | 20° |
| 2026-04-25 11:50 | 19.19944 | -82.86256 | 29911 ft | 469 kts | 20° |
| 2026-04-25 11:51 | 19.25849 | -82.83319 | 29912 ft | 469 kts | 20° |
| 2026-04-25 11:51 | 19.31753 | -82.80387 | 29918 ft | 469 kts | 20° |
| 2026-04-25 11:52 | 19.37622 | -82.77474 | 29927 ft | 469 kts | 19° |
| 2026-04-25 11:52 | 19.43526 | -82.74536 | 29917 ft | 469 kts | 19° |
| 2026-04-25 11:53 | 19.49435 | -82.71593 | 29916 ft | 469 kts | 19° |
| 2026-04-25 11:53 | 19.55339 | -82.68651 | 29917 ft | 469 kts | 19° |
| 2026-04-25 11:54 | 19.61248 | -82.65695 | 29919 ft | 469 kts | 19° |
| 2026-04-25 11:55 | 19.70103 | -82.61267 | 29928 ft | 469 kts | 19° |
| 2026-04-25 11:55 | 19.76012 | -82.58319 | 29923 ft | 469 kts | 19° |
| 2026-04-25 11:56 | 19.81874 | -82.55394 | 29928 ft | 469 kts | 19° |
| 2026-04-25 11:56 | 19.87774 | -82.52437 | 29924 ft | 469 kts | 19° |
| 2026-04-25 11:57 | 19.93711 | -82.49457 | 29919 ft | 469 kts | 19° |
| 2026-04-25 11:57 | 19.99606 | -82.46493 | 29946 ft | 469 kts | 19° |
| 2026-04-25 11:58 | 20.05458 | -82.43550 | 29936 ft | 468 kts | 19° |
| 2026-04-25 11:58 | 20.11431 | -82.40931 | 29936 ft | 458 kts | 9° |
| 2026-04-25 11:59 | 20.17574 | -82.39084 | 29936 ft | 458 kts | 9° |
| 2026-04-25 11:59 | 20.23719 | -82.37225 | 29933 ft | 458 kts | 9° |
| 2026-04-25 12:00 | 20.32893 | -82.34443 | 29952 ft | 458 kts | 9° |
| 2026-04-25 12:01 | 20.42090 | -82.31646 | 29939 ft | 458 kts | 9° |
| 2026-04-25 12:01 | 20.48217 | -82.29787 | 29934 ft | 458 kts | 9° |
| 2026-04-25 12:02 | 20.57415 | -82.27040 | 29931 ft | 457 kts | 8° |
| 2026-04-25 12:02 | 20.63540 | -82.25216 | 29953 ft | 457 kts | 8° |
| 2026-04-25 12:03 | 20.69633 | -82.23391 | 29945 ft | 457 kts | 8° |
| 2026-04-25 12:03 | 20.75753 | -82.21548 | 29940 ft | 457 kts | 8° |
| 2026-04-25 12:04 | 20.80850 | -82.20014 | 29935 ft | 457 kts | 8° |
| 2026-04-25 12:04 | 20.86973 | -82.18176 | 29930 ft | 457 kts | 8° |
| 2026-04-25 12:05 | 20.93090 | -82.16338 | 29928 ft | 457 kts | 8° |
| 2026-04-25 12:05 | 20.99212 | -82.14503 | 29950 ft | 457 kts | 8° |
| 2026-04-25 12:06 | 21.05330 | -82.12663 | 29944 ft | 456 kts | 8° |
| 2026-04-25 12:06 | 21.11453 | -82.10823 | 29940 ft | 456 kts | 8° |
| 2026-04-25 12:07 | 21.17561 | -82.08978 | 29942 ft | 456 kts | 8° |
| 2026-04-25 12:07 | 21.23631 | -82.07146 | 29932 ft | 456 kts | 8° |
| 2026-04-25 12:08 | 21.29741 | -82.05304 | 29929 ft | 456 kts | 8° |
| 2026-04-25 12:08 | 21.35853 | -82.03460 | 29934 ft | 456 kts | 8° |
| 2026-04-25 12:09 | 21.41959 | -82.01610 | 29926 ft | 456 kts | 8° |
| 2026-04-25 12:09 | 21.48068 | -81.99757 | 29932 ft | 456 kts | 8° |
| 2026-04-25 12:10 | 21.54176 | -81.97909 | 29932 ft | 456 kts | 8° |
| 2026-04-25 12:10 | 21.60239 | -81.96069 | 29957 ft | 456 kts | 8° |
| 2026-04-25 12:11 | 21.66334 | -81.94216 | 29964 ft | 455 kts | 7° |
| 2026-04-25 12:11 | 21.72421 | -81.92362 | 29959 ft | 454 kts | 7° |
| 2026-04-25 12:12 | 21.78493 | -81.90515 | 29949 ft | 453 kts | 7° |
| 2026-04-25 12:12 | 21.84568 | -81.88665 | 29943 ft | 453 kts | 7° |
| 2026-04-25 12:13 | 21.90649 | -81.86812 | 29942 ft | 453 kts | 7° |
| 2026-04-25 12:13 | 21.96710 | -81.84964 | 29969 ft | 452 kts | 7° |
| 2026-04-25 12:14 | 22.02770 | -81.83118 | 29962 ft | 452 kts | 7° |
| 2026-04-25 12:14 | 22.08812 | -81.81271 | 29957 ft | 451 kts | 7° |
| 2026-04-25 12:15 | 22.14806 | -81.79433 | 29953 ft | 451 kts | 7° |
| 2026-04-25 12:15 | 22.20842 | -81.77585 | 29949 ft | 450 kts | 7° |
| 2026-04-25 12:16 | 22.26874 | -81.75741 | 29985 ft | 450 kts | 7° |
| 2026-04-25 12:16 | 22.32903 | -81.73885 | 29972 ft | 450 kts | 7° |
| 2026-04-25 12:17 | 22.38926 | -81.72041 | 29965 ft | 449 kts | 7° |
| 2026-04-25 12:17 | 22.44950 | -81.70246 | 29959 ft | 449 kts | 6° |
| 2026-04-25 12:18 | 22.50975 | -81.68455 | 29960 ft | 449 kts | 7° |
| 2026-04-25 12:18 | 22.56992 | -81.66649 | 29983 ft | 449 kts | 7° |
| 2026-04-25 12:19 | 22.65981 | -81.63958 | 29972 ft | 448 kts | 7° |
| 2026-04-25 12:20 | 22.72001 | -81.62152 | 29961 ft | 448 kts | 7° |
| 2026-04-25 12:20 | 22.78015 | -81.60345 | 29956 ft | 449 kts | 7° |
| 2026-04-25 12:21 | 22.84029 | -81.58537 | 29956 ft | 448 kts | 7° |
| 2026-04-25 12:21 | 22.90048 | -81.56726 | 29981 ft | 448 kts | 7° |
| 2026-04-25 12:22 | 22.96020 | -81.54926 | 29964 ft | 448 kts | 7° |
| 2026-04-25 12:22 | 23.02027 | -81.53117 | 29954 ft | 448 kts | 7° |
| 2026-04-25 12:23 | 23.08038 | -81.51313 | 29950 ft | 448 kts | 7° |
| 2026-04-25 12:23 | 23.14045 | -81.49499 | 29950 ft | 448 kts | 7° |
| 2026-04-25 12:24 | 23.20050 | -81.47679 | 29981 ft | 448 kts | 8° |
| 2026-04-25 12:24 | 23.26070 | -81.45855 | 29973 ft | 449 kts | 8° |
| 2026-04-25 12:25 | 23.32086 | -81.44038 | 29966 ft | 449 kts | 8° |
| 2026-04-25 12:25 | 23.38101 | -81.42217 | 29963 ft | 448 kts | 8° |
| 2026-04-25 12:26 | 23.44110 | -81.40391 | 29952 ft | 448 kts | 8° |
| 2026-04-25 12:26 | 23.50113 | -81.38565 | 29945 ft | 448 kts | 8° |
| 2026-04-25 12:27 | 23.56118 | -81.36741 | 29957 ft | 448 kts | 8° |
| 2026-04-25 12:27 | 23.62135 | -81.34915 | 29961 ft | 448 kts | 8° |
| 2026-04-25 12:28 | 23.68148 | -81.33082 | 29959 ft | 449 kts | 8° |
| 2026-04-25 12:28 | 23.74120 | -81.31253 | 29955 ft | 448 kts | 8° |
| 2026-04-25 12:29 | 23.80127 | -81.29417 | 29952 ft | 448 kts | 8° |
| 2026-04-25 12:29 | 23.86140 | -81.27587 | 29978 ft | 448 kts | 8° |
| 2026-04-25 12:30 | 23.92149 | -81.25755 | 29960 ft | 448 kts | 8° |
| 2026-04-25 12:30 | 23.98161 | -81.23911 | 29951 ft | 448 kts | 8° |
| 2026-04-25 12:31 | 24.04210 | -81.22731 | 29945 ft | 440 kts | 360° |
| 2026-04-25 12:31 | 24.10280 | -81.21862 | 29940 ft | 440 kts | 360° |
| 2026-04-25 12:32 | 24.16311 | -81.20992 | 29961 ft | 440 kts | 360° |
| 2026-04-25 12:32 | 24.22387 | -81.20112 | 29951 ft | 440 kts | 360° |
| 2026-04-25 12:33 | 24.28465 | -81.19233 | 29950 ft | 440 kts | 360° |
| 2026-04-25 12:33 | 24.34541 | -81.18367 | 29948 ft | 440 kts | 360° |
| 2026-04-25 12:34 | 24.40624 | -81.17496 | 29944 ft | 441 kts | 360° |
| 2026-04-25 12:34 | 24.46704 | -81.16616 | 29949 ft | 441 kts | 360° |
| 2026-04-25 12:35 | 24.52793 | -81.15731 | 29951 ft | 441 kts | 360° |
| 2026-04-25 12:35 | 24.58874 | -81.14859 | 29946 ft | 441 kts | 360° |
| 2026-04-25 12:36 | 24.64913 | -81.14119 | 29967 ft | 439 kts | 358° |
| 2026-04-25 12:36 | 24.70990 | -81.13528 | 29964 ft | 438 kts | 357° |
| 2026-04-25 12:37 | 24.77068 | -81.12930 | 29988 ft | 438 kts | 358° |
| 2026-04-25 12:37 | 24.83139 | -81.12299 | 29975 ft | 438 kts | 358° |
| 2026-04-25 12:38 | 24.89211 | -81.11652 | 29976 ft | 438 kts | 358° |
| 2026-04-25 12:38 | 24.95283 | -81.10997 | 29968 ft | 438 kts | 358° |
| 2026-04-25 12:39 | 25.01347 | -81.10354 | 29971 ft | 438 kts | 358° |
| 2026-04-25 12:39 | 25.07410 | -81.09713 | 30002 ft | 437 kts | 358° |
| 2026-04-25 12:40 | 25.13464 | -81.09069 | 29988 ft | 437 kts | 358° |
| 2026-04-25 12:40 | 25.19510 | -81.08425 | 29979 ft | 436 kts | 358° |
| 2026-04-25 12:41 | 25.25554 | -81.07788 | 29975 ft | 436 kts | 358° |
| 2026-04-25 12:41 | 25.31562 | -81.07149 | 29972 ft | 436 kts | 358° |
| 2026-04-25 12:42 | 25.37604 | -81.06509 | 29998 ft | 436 kts | 358° |
| 2026-04-25 12:42 | 25.43644 | -81.05862 | 29991 ft | 436 kts | 358° |
| 2026-04-25 12:43 | 25.49677 | -81.05209 | 29979 ft | 436 kts | 358° |
| 2026-04-25 12:43 | 25.58723 | -81.04243 | 29969 ft | 435 kts | 358° |
| 2026-04-25 12:44 | 25.64749 | -81.03604 | 29971 ft | 435 kts | 358° |
| 2026-04-25 12:45 | 25.73796 | -81.02630 | 29982 ft | 435 kts | 358° |
| 2026-04-25 12:45 | 25.82829 | -81.01662 | 29971 ft | 435 kts | 358° |
| 2026-04-25 12:46 | 25.88855 | -81.01011 | 29977 ft | 435 kts | 358° |
| 2026-04-25 12:46 | 25.94875 | -81.00361 | 29971 ft | 435 kts | 358° |
| 2026-04-25 12:47 | 26.00899 | -80.99710 | 29993 ft | 435 kts | 359° |
| 2026-04-25 12:47 | 26.06921 | -80.99065 | 29986 ft | 435 kts | 359° |
| 2026-04-25 12:48 | 26.12944 | -80.98417 | 29977 ft | 435 kts | 359° |
| 2026-04-25 12:48 | 26.18976 | -80.97770 | 29975 ft | 435 kts | 359° |
| 2026-04-25 12:49 | 26.25002 | -80.97119 | 29981 ft | 435 kts | 359° |
| 2026-04-25 12:49 | 26.31034 | -80.96457 | 29993 ft | 435 kts | 360° |
| 2026-04-25 12:50 | 26.37063 | -80.95793 | 29984 ft | 435 kts | 360° |
| 2026-04-25 12:50 | 26.43057 | -80.95144 | 29972 ft | 435 kts | 360° |
| 2026-04-25 12:51 | 26.49086 | -80.94491 | 29967 ft | 435 kts | 360° |
| 2026-04-25 12:51 | 26.55121 | -80.93837 | 29967 ft | 435 kts | 360° |
| 2026-04-25 12:52 | 26.60142 | -80.93291 | 29986 ft | 435 kts | 1° |
| 2026-04-25 12:52 | 26.66173 | -80.92638 | 29978 ft | 436 kts | 1° |
| 2026-04-25 12:53 | 26.72212 | -80.91987 | 29980 ft | 436 kts | 1° |
| 2026-04-25 12:53 | 26.78254 | -80.91334 | 29980 ft | 436 kts | 1° |
| 2026-04-25 12:54 | 26.84295 | -80.90674 | 29979 ft | 436 kts | 1° |
| 2026-04-25 12:54 | 26.90337 | -80.90012 | 29979 ft | 437 kts | 2° |
| 2026-04-25 12:55 | 26.95373 | -80.89462 | 29974 ft | 437 kts | 2° |
| 2026-04-25 12:55 | 27.02417 | -80.88704 | 29972 ft | 437 kts | 2° |
| 2026-04-25 12:56 | 27.08485 | -80.88041 | 29973 ft | 438 kts | 2° |
| 2026-04-25 12:56 | 27.14547 | -80.87375 | 29975 ft | 438 kts | 2° |
| 2026-04-25 12:57 | 27.20610 | -80.86706 | 29981 ft | 438 kts | 4° |
| 2026-04-25 12:57 | 27.26684 | -80.86036 | 29982 ft | 438 kts | 4° |
| 2026-04-25 12:58 | 27.32757 | -80.85709 | 29982 ft | 435 kts | 353° |
| 2026-04-25 12:58 | 27.38692 | -80.86749 | 29980 ft | 434 kts | 349° |
| 2026-04-25 12:59 | 27.44653 | -80.87886 | 29982 ft | 434 kts | 349° |
| 2026-04-25 12:59 | 27.50616 | -80.89010 | 29982 ft | 434 kts | 349° |
| 2026-04-25 13:00 | 27.55571 | -80.89954 | 29984 ft | 434 kts | 349° |
| 2026-04-25 13:00 | 27.62533 | -80.91288 | 29987 ft | 434 kts | 348° |
| 2026-04-25 13:01 | 27.68482 | -80.92428 | 29992 ft | 433 kts | 349° |
| 2026-04-25 13:01 | 27.74431 | -80.93559 | 29992 ft | 433 kts | 349° |
| 2026-04-25 13:02 | 27.80347 | -80.94674 | 29985 ft | 434 kts | 350° |
| 2026-04-25 13:02 | 27.86096 | -80.95768 | 29976 ft | 434 kts | 349° |
| 2026-04-25 13:03 | 27.92011 | -80.96928 | 29968 ft | 434 kts | 349° |
| 2026-04-25 13:03 | 27.97967 | -80.98095 | 29968 ft | 434 kts | 349° |
| 2026-04-25 13:04 | 28.03930 | -80.99254 | 29972 ft | 434 kts | 349° |
| 2026-04-25 13:04 | 28.09887 | -81.00404 | 29980 ft | 434 kts | 349° |
| 2026-04-25 13:05 | 28.15842 | -81.01557 | 29982 ft | 434 kts | 349° |
| 2026-04-25 13:05 | 28.21789 | -81.02716 | 29984 ft | 434 kts | 349° |
| 2026-04-25 13:06 | 28.27707 | -81.03875 | 29982 ft | 433 kts | 349° |
| 2026-04-25 13:06 | 28.33649 | -81.05032 | 29982 ft | 433 kts | 349° |
| 2026-04-25 13:07 | 28.39432 | -81.06845 | 29989 ft | 432 kts | 338° |
| 2026-04-25 13:07 | 28.45040 | -81.09282 | 29989 ft | 431 kts | 339° |
| 2026-04-25 13:08 | 28.50640 | -81.11697 | 29995 ft | 431 kts | 339° |
| 2026-04-25 13:08 | 28.56260 | -81.14113 | 29993 ft | 433 kts | 339° |
| 2026-04-25 13:09 | 28.59078 | -81.15332 | 30212 ft | 432 kts | 339° |
| 2026-04-25 13:09 | 28.61885 | -81.16552 | 30441 ft | 432 kts | 338° |
| 2026-04-25 13:09 | 28.64692 | -81.17773 | 30672 ft | 431 kts | 339° |
| 2026-04-25 13:09 | 28.67494 | -81.18989 | 30890 ft | 432 kts | 339° |
| 2026-04-25 13:10 | 28.73086 | -81.21414 | 30981 ft | 432 kts | 339° |
| 2026-04-25 13:10 | 28.78730 | -81.23866 | 30980 ft | 434 kts | 339° |
| 2026-04-25 13:11 | 28.84370 | -81.26319 | 30988 ft | 435 kts | 339° |
| 2026-04-25 13:11 | 28.90036 | -81.28740 | 30992 ft | 434 kts | 343° |
| 2026-04-25 13:12 | 28.95946 | -81.29804 | 30995 ft | 434 kts | 355° |
| 2026-04-25 13:12 | 29.00999 | -81.30198 | 30993 ft | 435 kts | 355° |
| 2026-04-25 13:13 | 29.07970 | -81.30752 | 30989 ft | 435 kts | 355° |
| 2026-04-25 13:13 | 29.14029 | -81.31232 | 30988 ft | 435 kts | 355° |
| 2026-04-25 13:14 | 29.20069 | -81.31711 | 30987 ft | 435 kts | 355° |
| 2026-04-25 13:14 | 29.26083 | -81.32187 | 30976 ft | 435 kts | 356° |
| 2026-04-25 13:15 | 29.32121 | -81.32632 | 30976 ft | 435 kts | 356° |
| 2026-04-25 13:15 | 29.38163 | -81.32969 | 30975 ft | 435 kts | 357° |
| 2026-04-25 13:16 | 29.44206 | -81.33294 | 30972 ft | 434 kts | 357° |
| 2026-04-25 13:16 | 29.50250 | -81.33646 | 30971 ft | 434 kts | 356° |
| 2026-04-25 13:17 | 29.56283 | -81.34008 | 30979 ft | 434 kts | 357° |
| 2026-04-25 13:17 | 29.62328 | -81.34365 | 30982 ft | 434 kts | 357° |
| 2026-04-25 13:18 | 29.68320 | -81.34715 | 30986 ft | 434 kts | 357° |
| 2026-04-25 13:18 | 29.74351 | -81.35077 | 30986 ft | 434 kts | 357° |
| 2026-04-25 13:19 | 29.80375 | -81.35440 | 30984 ft | 434 kts | 357° |
| 2026-04-25 13:19 | 29.85423 | -81.35736 | 30986 ft | 433 kts | 357° |
| 2026-04-25 13:20 | 29.92432 | -81.36148 | 30983 ft | 433 kts | 357° |
| 2026-04-25 13:20 | 29.98456 | -81.36509 | 30982 ft | 433 kts | 357° |
| 2026-04-25 13:21 | 30.04482 | -81.36870 | 30981 ft | 433 kts | 357° |
| 2026-04-25 13:21 | 30.10500 | -81.37226 | 30979 ft | 433 kts | 357° |
| 2026-04-25 13:22 | 30.16525 | -81.37581 | 30980 ft | 433 kts | 357° |
| 2026-04-25 13:23 | 30.25510 | -81.38120 | 30976 ft | 433 kts | 357° |
| 2026-04-25 13:23 | 30.31533 | -81.38485 | 30977 ft | 433 kts | 357° |
| 2026-04-25 13:24 | 30.37559 | -81.38842 | 30979 ft | 433 kts | 357° |
| 2026-04-25 13:24 | 30.43581 | -81.39200 | 30978 ft | 433 kts | 357° |
| 2026-04-25 13:25 | 30.49598 | -81.39556 | 30974 ft | 433 kts | 357° |
| 2026-04-25 13:25 | 30.55623 | -81.39875 | 30985 ft | 433 kts | 358° |
| 2026-04-25 13:26 | 30.61643 | -81.40176 | 30987 ft | 433 kts | 358° |
| 2026-04-25 13:26 | 30.67663 | -81.40490 | 30990 ft | 433 kts | 358° |
| 2026-04-25 13:27 | 30.73684 | -81.40812 | 30985 ft | 433 kts | 358° |
| 2026-04-25 13:27 | 30.79658 | -81.41125 | 30981 ft | 432 kts | 358° |
| 2026-04-25 13:28 | 30.85667 | -81.41449 | 30978 ft | 432 kts | 358° |
| 2026-04-25 13:28 | 30.91676 | -81.41771 | 30970 ft | 432 kts | 358° |
| 2026-04-25 13:29 | 30.97690 | -81.42090 | 30962 ft | 432 kts | 358° |
| 2026-04-25 13:29 | 31.03696 | -81.42410 | 30960 ft | 432 kts | 358° |
| 2026-04-25 13:30 | 31.12698 | -81.42897 | 30955 ft | 431 kts | 358° |
| 2026-04-25 13:31 | 31.21692 | -81.43359 | 30965 ft | 431 kts | 1° |
| 2026-04-25 13:31 | 31.27577 | -81.42191 | 30964 ft | 431 kts | 19° |
| 2026-04-25 13:32 | 31.33063 | -81.39321 | 30958 ft | 432 kts | 24° |
| 2026-04-25 13:32 | 31.38485 | -81.36389 | 30956 ft | 432 kts | 24° |
| 2026-04-25 13:33 | 31.43945 | -81.33429 | 30955 ft | 432 kts | 24° |
| 2026-04-25 13:33 | 31.49395 | -81.30468 | 30954 ft | 432 kts | 24° |
| 2026-04-25 13:34 | 31.54850 | -81.27501 | 30963 ft | 432 kts | 24° |
| 2026-04-25 13:34 | 31.60297 | -81.24516 | 30955 ft | 432 kts | 24° |
| 2026-04-25 13:35 | 31.65747 | -81.21537 | 30952 ft | 432 kts | 24° |
| 2026-04-25 13:35 | 31.71198 | -81.18578 | 30930 ft | 431 kts | 24° |
| 2026-04-25 13:36 | 31.76643 | -81.15613 | 30927 ft | 431 kts | 24° |
| 2026-04-25 13:36 | 31.82081 | -81.12632 | 30917 ft | 431 kts | 24° |
| 2026-04-25 13:37 | 31.87522 | -81.09639 | 30912 ft | 431 kts | 24° |
| 2026-04-25 13:37 | 31.92960 | -81.06651 | 30911 ft | 431 kts | 24° |
| 2026-04-25 13:38 | 31.98403 | -81.03668 | 30909 ft | 431 kts | 24° |
| 2026-04-25 13:38 | 32.03833 | -81.00668 | 30912 ft | 431 kts | 24° |
| 2026-04-25 13:39 | 32.09252 | -80.97622 | 30910 ft | 431 kts | 24° |
| 2026-04-25 13:39 | 32.14632 | -80.94598 | 30911 ft | 431 kts | 24° |
| 2026-04-25 13:40 | 32.20050 | -80.91556 | 30941 ft | 431 kts | 24° |
| 2026-04-25 13:40 | 32.25460 | -80.88513 | 30955 ft | 430 kts | 24° |
| 2026-04-25 13:41 | 32.30873 | -80.85477 | 30952 ft | 430 kts | 24° |
| 2026-04-25 13:41 | 32.35359 | -80.82955 | 30940 ft | 430 kts | 24° |
| 2026-04-25 13:42 | 32.40761 | -80.79913 | 30940 ft | 429 kts | 24° |
| 2026-04-25 13:42 | 32.46163 | -80.76878 | 30940 ft | 429 kts | 24° |
| 2026-04-25 13:43 | 32.51548 | -80.73833 | 30932 ft | 429 kts | 24° |
| 2026-04-25 13:43 | 32.56947 | -80.70770 | 30935 ft | 429 kts | 24° |
| 2026-04-25 13:44 | 32.62345 | -80.67714 | 30929 ft | 430 kts | 24° |
| 2026-04-25 13:44 | 32.67740 | -80.64653 | 30923 ft | 430 kts | 24° |
| 2026-04-25 13:45 | 32.72924 | -80.61109 | 30919 ft | 432 kts | 36° |
| 2026-04-25 13:45 | 32.77691 | -80.56776 | 30920 ft | 432 kts | 36° |
| 2026-04-25 13:46 | 32.82449 | -80.52466 | 30923 ft | 432 kts | 36° |
| 2026-04-25 13:46 | 32.87237 | -80.48133 | 30920 ft | 433 kts | 36° |
| 2026-04-25 13:47 | 32.92041 | -80.43782 | 30916 ft | 434 kts | 36° |
| 2026-04-25 13:47 | 32.96833 | -80.39417 | 30927 ft | 434 kts | 36° |
| 2026-04-25 13:48 | 33.01628 | -80.35046 | 30927 ft | 434 kts | 36° |
| 2026-04-25 13:48 | 33.06427 | -80.30671 | 30919 ft | 434 kts | 36° |
| 2026-04-25 13:49 | 33.11222 | -80.26288 | 30914 ft | 434 kts | 36° |
| 2026-04-25 13:49 | 33.16016 | -80.21898 | 30921 ft | 434 kts | 36° |
| 2026-04-25 13:50 | 33.20805 | -80.17504 | 30937 ft | 434 kts | 36° |
| 2026-04-25 13:50 | 33.25601 | -80.13102 | 30946 ft | 435 kts | 36° |
| 2026-04-25 13:51 | 33.30404 | -80.08690 | 30926 ft | 435 kts | 36° |
| 2026-04-25 13:51 | 33.35211 | -80.04273 | 30930 ft | 436 kts | 36° |
| 2026-04-25 13:52 | 33.40025 | -79.99849 | 30921 ft | 437 kts | 36° |
| 2026-04-25 13:52 | 33.44844 | -79.95394 | 30914 ft | 437 kts | 36° |
| 2026-04-25 13:53 | 33.49652 | -79.90944 | 30923 ft | 437 kts | 36° |
| 2026-04-25 13:53 | 33.54441 | -79.86518 | 30920 ft | 437 kts | 36° |
| 2026-04-25 13:54 | 33.59263 | -79.82047 | 30923 ft | 438 kts | 37° |
| 2026-04-25 13:54 | 33.64078 | -79.77571 | 30931 ft | 438 kts | 37° |
| 2026-04-25 13:55 | 33.68907 | -79.73077 | 30927 ft | 439 kts | 37° |
| 2026-04-25 13:55 | 33.73744 | -79.68580 | 30914 ft | 440 kts | 37° |
| 2026-04-25 13:56 | 33.78583 | -79.64078 | 30920 ft | 440 kts | 37° |
| 2026-04-25 13:56 | 33.83428 | -79.59553 | 30914 ft | 441 kts | 37° |
| 2026-04-25 13:57 | 33.88269 | -79.55013 | 30919 ft | 441 kts | 37° |
| 2026-04-25 13:57 | 33.93051 | -79.50360 | 30919 ft | 442 kts | 38° |
| 2026-04-25 13:58 | 33.97800 | -79.45658 | 30921 ft | 442 kts | 38° |
| 2026-04-25 13:58 | 34.02390 | -79.41138 | 30933 ft | 442 kts | 38° |
| 2026-04-25 13:59 | 34.07106 | -79.36522 | 30936 ft | 443 kts | 38° |
| 2026-04-25 13:59 | 34.11853 | -79.31869 | 30936 ft | 443 kts | 38° |
| 2026-04-25 14:00 | 34.16665 | -79.27133 | 30938 ft | 443 kts | 38° |
| 2026-04-25 14:00 | 34.21126 | -79.22722 | 30937 ft | 443 kts | 38° |
| 2026-04-25 14:01 | 34.25915 | -79.17998 | 30932 ft | 442 kts | 38° |
| 2026-04-25 14:01 | 34.30840 | -79.13537 | 30930 ft | 442 kts | 34° |
| 2026-04-25 14:02 | 34.35907 | -79.09321 | 30918 ft | 442 kts | 33° |
| 2026-04-25 14:02 | 34.40895 | -79.05157 | 30920 ft | 442 kts | 34° |
| 2026-04-25 14:03 | 34.45904 | -79.00828 | 30913 ft | 443 kts | 36° |
| 2026-04-25 14:03 | 34.50689 | -78.96421 | 30911 ft | 443 kts | 37° |
| 2026-04-25 14:04 | 34.55543 | -78.91862 | 30913 ft | 443 kts | 37° |
| 2026-04-25 14:04 | 34.60440 | -78.87296 | 30914 ft | 444 kts | 36° |
| 2026-04-25 14:05 | 34.65355 | -78.82754 | 30915 ft | 444 kts | 37° |
| 2026-04-25 14:05 | 34.70271 | -78.78210 | 30912 ft | 444 kts | 36° |
| 2026-04-25 14:06 | 34.75183 | -78.73675 | 30921 ft | 444 kts | 36° |
| 2026-04-25 14:06 | 34.80099 | -78.69117 | 30915 ft | 444 kts | 36° |
| 2026-04-25 14:07 | 34.85014 | -78.64530 | 30910 ft | 445 kts | 36° |
| 2026-04-25 14:07 | 34.89900 | -78.59969 | 30919 ft | 445 kts | 36° |
| 2026-04-25 14:08 | 34.94824 | -78.55381 | 30931 ft | 445 kts | 37° |
| 2026-04-25 14:08 | 34.99742 | -78.50788 | 30934 ft | 445 kts | 36° |
| 2026-04-25 14:09 | 35.04662 | -78.46171 | 30932 ft | 446 kts | 36° |
| 2026-04-25 14:09 | 35.09584 | -78.41548 | 30926 ft | 446 kts | 36° |
| 2026-04-25 14:10 | 35.14503 | -78.36935 | 30918 ft | 446 kts | 36° |
| 2026-04-25 14:10 | 35.19424 | -78.32312 | 30892 ft | 446 kts | 36° |
| 2026-04-25 14:11 | 35.24318 | -78.27705 | 30890 ft | 447 kts | 36° |
| 2026-04-25 14:11 | 35.29246 | -78.23062 | 30891 ft | 447 kts | 36° |
| 2026-04-25 14:12 | 35.34175 | -78.18399 | 30894 ft | 448 kts | 36° |
| 2026-04-25 14:12 | 35.39108 | -78.13730 | 30892 ft | 448 kts | 36° |
| 2026-04-25 14:13 | 35.44045 | -78.09062 | 30907 ft | 448 kts | 36° |
| 2026-04-25 14:13 | 35.48973 | -78.04387 | 30907 ft | 448 kts | 36° |
| 2026-04-25 14:14 | 35.53895 | -77.99699 | 30905 ft | 448 kts | 36° |
| 2026-04-25 14:14 | 35.58822 | -77.95001 | 30910 ft | 448 kts | 37° |
| 2026-04-25 14:15 | 35.63740 | -77.90295 | 30918 ft | 448 kts | 37° |
| 2026-04-25 14:15 | 35.68668 | -77.85588 | 30899 ft | 448 kts | 36° |
| 2026-04-25 14:16 | 35.73565 | -77.80914 | 30893 ft | 449 kts | 36° |
| 2026-04-25 14:16 | 35.78501 | -77.76188 | 30895 ft | 449 kts | 36° |
| 2026-04-25 14:17 | 35.83437 | -77.71451 | 30891 ft | 449 kts | 36° |
| 2026-04-25 14:17 | 35.88364 | -77.66705 | 30900 ft | 450 kts | 36° |
| 2026-04-25 14:18 | 35.93298 | -77.61942 | 30897 ft | 451 kts | 36° |
| 2026-04-25 14:18 | 35.98247 | -77.57179 | 30902 ft | 451 kts | 36° |
| 2026-04-25 14:19 | 36.03190 | -77.52406 | 30905 ft | 451 kts | 36° |
| 2026-04-25 14:19 | 36.08132 | -77.47621 | 30906 ft | 451 kts | 36° |
| 2026-04-25 14:20 | 36.12232 | -77.43647 | 30902 ft | 451 kts | 35° |
| 2026-04-25 14:20 | 36.17994 | -77.38056 | 30892 ft | 452 kts | 35° |
| 2026-04-25 14:21 | 36.22944 | -77.33241 | 30897 ft | 453 kts | 35° |
| 2026-04-25 14:21 | 36.27902 | -77.28413 | 30890 ft | 453 kts | 36° |
| 2026-04-25 14:22 | 36.32875 | -77.23630 | 30896 ft | 453 kts | 33° |
| 2026-04-25 14:22 | 36.38088 | -77.19247 | 30901 ft | 452 kts | 30° |
| 2026-04-25 14:23 | 36.43395 | -77.15073 | 30898 ft | 452 kts | 29° |
| 2026-04-25 14:23 | 36.48670 | -77.10816 | 30896 ft | 452 kts | 31° |
| 2026-04-25 14:24 | 36.53894 | -77.06465 | 30905 ft | 452 kts | 31° |
| 2026-04-25 14:24 | 36.59101 | -77.02124 | 30906 ft | 453 kts | 30° |
| 2026-04-25 14:25 | 36.64353 | -76.97777 | 30904 ft | 453 kts | 30° |
| 2026-04-25 14:25 | 36.69606 | -76.93428 | 30904 ft | 454 kts | 30° |
| 2026-04-25 14:26 | 36.74007 | -76.89772 | 30906 ft | 454 kts | 30° |
| 2026-04-25 14:26 | 36.79231 | -76.85423 | 30902 ft | 454 kts | 30° |
| 2026-04-25 14:27 | 36.84482 | -76.81037 | 30904 ft | 454 kts | 30° |
| 2026-04-25 14:27 | 36.89728 | -76.76651 | 30904 ft | 454 kts | 30° |
| 2026-04-25 14:28 | 36.94972 | -76.72260 | 30904 ft | 453 kts | 30° |
| 2026-04-25 14:28 | 37.00218 | -76.67863 | 30911 ft | 454 kts | 30° |
| 2026-04-25 14:29 | 37.05466 | -76.63461 | 30906 ft | 454 kts | 30° |
| 2026-04-25 14:29 | 37.10716 | -76.59049 | 30900 ft | 455 kts | 30° |
| 2026-04-25 14:30 | 37.15964 | -76.54615 | 30910 ft | 455 kts | 30° |
| 2026-04-25 14:30 | 37.23805 | -76.47985 | 30919 ft | 455 kts | 30° |
| 2026-04-25 14:31 | 37.29053 | -76.43541 | 30914 ft | 455 kts | 30° |
| 2026-04-25 14:31 | 37.34302 | -76.39093 | 30920 ft | 454 kts | 30° |
| 2026-04-25 14:32 | 37.39539 | -76.34649 | 30913 ft | 454 kts | 30° |
| 2026-04-25 14:32 | 37.44781 | -76.30185 | 30909 ft | 455 kts | 30° |
| 2026-04-25 14:33 | 37.50018 | -76.25718 | 30713 ft | 453 kts | 30° |
| 2026-04-25 14:33 | 37.52629 | -76.23486 | 29932 ft | 455 kts | 30° |
| 2026-04-25 14:33 | 37.55258 | -76.21242 | 29056 ft | 457 kts | 30° |
| 2026-04-25 14:34 | 37.57883 | -76.19002 | 28442 ft | 452 kts | 31° |
| 2026-04-25 14:34 | 37.60475 | -76.16789 | 27849 ft | 448 kts | 31° |
| 2026-04-25 14:34 | 37.63010 | -76.14623 | 27268 ft | 444 kts | 31° |
| 2026-04-25 14:34 | 37.65551 | -76.12453 | 26713 ft | 439 kts | 31° |
| 2026-04-25 14:35 | 37.68068 | -76.10302 | 26153 ft | 434 kts | 31° |
| 2026-04-25 14:35 | 37.70556 | -76.08171 | 25590 ft | 430 kts | 31° |
| 2026-04-25 14:35 | 37.73019 | -76.06059 | 25042 ft | 426 kts | 31° |
| 2026-04-25 14:35 | 37.75462 | -76.03965 | 24494 ft | 422 kts | 31° |
| 2026-04-25 14:36 | 37.77882 | -76.01891 | 23946 ft | 418 kts | 31° |
| 2026-04-25 14:36 | 37.80275 | -75.99839 | 23372 ft | 414 kts | 32° |
| 2026-04-25 14:36 | 37.82649 | -75.97797 | 22709 ft | 410 kts | 31° |
| 2026-04-25 14:36 | 37.84998 | -75.95773 | 22105 ft | 406 kts | 31° |
| 2026-04-25 14:37 | 37.87325 | -75.93768 | 21844 ft | 406 kts | 31° |
| 2026-04-25 14:37 | 37.89668 | -75.91750 | 21584 ft | 412 kts | 31° |
| 2026-04-25 14:37 | 37.92072 | -75.89680 | 21336 ft | 422 kts | 32° |
| 2026-04-25 14:37 | 37.94505 | -75.87584 | 21087 ft | 423 kts | 32° |
| 2026-04-25 14:38 | 37.96935 | -75.85485 | 20919 ft | 422 kts | 31° |
| 2026-04-25 14:38 | 37.99365 | -75.83389 | 20946 ft | 423 kts | 31° |
| 2026-04-25 14:38 | 38.01801 | -75.81289 | 20951 ft | 423 kts | 31° |
| 2026-04-25 14:38 | 38.04230 | -75.79186 | 20953 ft | 423 kts | 31° |
| 2026-04-25 14:39 | 38.06655 | -75.77080 | 20963 ft | 422 kts | 31° |
| 2026-04-25 14:39 | 38.09082 | -75.74974 | 20967 ft | 422 kts | 31° |
| 2026-04-25 14:39 | 38.11507 | -75.72874 | 20968 ft | 422 kts | 31° |
| 2026-04-25 14:39 | 38.13904 | -75.70800 | 20975 ft | 422 kts | 31° |
| 2026-04-25 14:40 | 38.16327 | -75.68699 | 20985 ft | 422 kts | 31° |
| 2026-04-25 14:40 | 38.18747 | -75.66595 | 20988 ft | 422 kts | 31° |
| 2026-04-25 14:40 | 38.21164 | -75.64489 | 20994 ft | 422 kts | 31° |
| 2026-04-25 14:40 | 38.23590 | -75.62373 | 21004 ft | 422 kts | 31° |
| 2026-04-25 14:41 | 38.26006 | -75.60265 | 21000 ft | 422 kts | 31° |
| 2026-04-25 14:41 | 38.28435 | -75.58145 | 21001 ft | 422 kts | 31° |
| 2026-04-25 14:41 | 38.30858 | -75.56042 | 21001 ft | 421 kts | 29° |
| 2026-04-25 14:41 | 38.33434 | -75.54312 | 20996 ft | 417 kts | 19° |
| 2026-04-25 14:42 | 38.36183 | -75.53204 | 20997 ft | 413 kts | 9° |
| 2026-04-25 14:42 | 38.38056 | -75.52808 | 20995 ft | 410 kts | 3° |
| 2026-04-25 14:42 | 38.41851 | -75.52300 | 20996 ft | 410 kts | 3° |
| 2026-04-25 14:42 | 38.44695 | -75.51919 | 20993 ft | 410 kts | 3° |
| 2026-04-25 14:43 | 38.47532 | -75.51535 | 21005 ft | 410 kts | 2° |
| 2026-04-25 14:43 | 38.50375 | -75.51145 | 21004 ft | 410 kts | 3° |
| 2026-04-25 14:43 | 38.53209 | -75.50758 | 21002 ft | 410 kts | 2° |
| 2026-04-25 14:43 | 38.56051 | -75.50375 | 21001 ft | 410 kts | 2° |
| 2026-04-25 14:44 | 38.58848 | -75.50000 | 20999 ft | 410 kts | 2° |
| 2026-04-25 14:44 | 38.61724 | -75.49613 | 20998 ft | 410 kts | 2° |
| 2026-04-25 14:44 | 38.64528 | -75.49232 | 20996 ft | 410 kts | 2° |
| 2026-04-25 14:44 | 38.67359 | -75.48842 | 21029 ft | 410 kts | 2° |
| 2026-04-25 14:45 | 38.69276 | -75.48579 | 21028 ft | 410 kts | 2° |
| 2026-04-25 14:45 | 38.73032 | -75.48068 | 21023 ft | 410 kts | 2° |
| 2026-04-25 14:45 | 38.75868 | -75.47682 | 21025 ft | 409 kts | 2° |
| 2026-04-25 14:45 | 38.78697 | -75.47293 | 21021 ft | 409 kts | 2° |
| 2026-04-25 14:46 | 38.81509 | -75.46901 | 20834 ft | 398 kts | 2° |
| 2026-04-25 14:46 | 38.84220 | -75.46522 | 20583 ft | 388 kts | 2° |
| 2026-04-25 14:46 | 38.86895 | -75.46151 | 20339 ft | 385 kts | 2° |
| 2026-04-25 14:46 | 38.89555 | -75.45783 | 20113 ft | 383 kts | 2° |
| 2026-04-25 14:47 | 38.92203 | -75.45421 | 19866 ft | 383 kts | 2° |
| 2026-04-25 14:47 | 38.93953 | -75.45180 | 19700 ft | 382 kts | 2° |
| 2026-04-25 14:47 | 38.97504 | -75.44690 | 19389 ft | 380 kts | 2° |
| 2026-04-25 14:47 | 39.00078 | -75.44388 | 19159 ft | 377 kts | 358° |
| 2026-04-25 14:48 | 39.02711 | -75.44543 | 18924 ft | 372 kts | 349° |
| 2026-04-25 14:48 | 39.05200 | -75.45206 | 18690 ft | 368 kts | 342° |
| 2026-04-25 14:48 | 39.07679 | -75.46035 | 18465 ft | 367 kts | 342° |
| 2026-04-25 14:48 | 39.10150 | -75.46855 | 18227 ft | 366 kts | 342° |
| 2026-04-25 14:49 | 39.12617 | -75.47666 | 17973 ft | 366 kts | 342° |
| 2026-04-25 14:49 | 39.15092 | -75.48476 | 17707 ft | 366 kts | 342° |
| 2026-04-25 14:49 | 39.17557 | -75.49282 | 17444 ft | 365 kts | 342° |
| 2026-04-25 14:49 | 39.20014 | -75.50085 | 17184 ft | 364 kts | 342° |
| 2026-04-25 14:50 | 39.22466 | -75.50890 | 16926 ft | 363 kts | 342° |
| 2026-04-25 14:50 | 39.24908 | -75.51693 | 16676 ft | 362 kts | 342° |
| 2026-04-25 14:50 | 39.27345 | -75.52497 | 16420 ft | 361 kts | 342° |
| 2026-04-25 14:50 | 39.29770 | -75.53308 | 16170 ft | 360 kts | 342° |
| 2026-04-25 14:51 | 39.32193 | -75.54125 | 15910 ft | 359 kts | 342° |
| 2026-04-25 14:51 | 39.34605 | -75.54936 | 15661 ft | 356 kts | 342° |
| 2026-04-25 14:51 | 39.36998 | -75.55732 | 15110 ft | 354 kts | 343° |
| 2026-04-25 14:51 | 39.39447 | -75.56171 | 14574 ft | 357 kts | 355° |
| 2026-04-25 14:52 | 39.41925 | -75.55993 | 14059 ft | 358 kts | 2° |
| 2026-04-25 14:52 | 39.44402 | -75.55711 | 13506 ft | 356 kts | 1° |
| 2026-04-25 14:52 | 39.46855 | -75.55438 | 12958 ft | 353 kts | 1° |
| 2026-04-25 14:52 | 39.48474 | -75.55259 | 12610 ft | 351 kts | 1° |
| 2026-04-25 14:53 | 39.51683 | -75.54907 | 11911 ft | 347 kts | 1° |
| 2026-04-25 14:53 | 39.54082 | -75.54645 | 11398 ft | 344 kts | 1° |
| 2026-04-25 14:53 | 39.56449 | -75.54659 | 10889 ft | 337 kts | 349° |
| 2026-04-25 14:53 | 39.58714 | -75.55288 | 10395 ft | 329 kts | 338° |
| 2026-04-25 14:54 | 39.60814 | -75.56382 | 10051 ft | 320 kts | 330° |
| 2026-04-25 14:54 | 39.62536 | -75.58014 | 9922 ft | 297 kts | 307° |
| 2026-04-25 14:54 | 39.63472 | -75.60262 | 9793 ft | 276 kts | 282° |
| 2026-04-25 14:54 | 39.63512 | -75.62671 | 9562 ft | 265 kts | 257° |
| 2026-04-25 14:55 | 39.62688 | -75.64782 | 9163 ft | 266 kts | 230° |
| 2026-04-25 14:55 | 39.61165 | -75.66142 | 8726 ft | 272 kts | 203° |
| 2026-04-25 14:55 | 39.59278 | -75.66422 | 8286 ft | 279 kts | 176° |
| 2026-04-25 14:55 | 39.57452 | -75.65529 | 7845 ft | 288 kts | 148° |
| 2026-04-25 14:56 | 39.56087 | -75.63622 | 7410 ft | 293 kts | 121° |
| 2026-04-25 14:56 | 39.55498 | -75.61098 | 6974 ft | 296 kts | 93° |
| 2026-04-25 14:56 | 39.55683 | -75.58447 | 6547 ft | 295 kts | 80° |
| 2026-04-25 14:56 | 39.56261 | -75.55912 | 6106 ft | 293 kts | 59° |
| 2026-04-25 14:57 | 39.57593 | -75.53993 | 5960 ft | 288 kts | 31° |
| 2026-04-25 14:57 | 39.59438 | -75.53081 | 5976 ft | 285 kts | 2° |
| 2026-04-25 14:57 | 39.61350 | -75.53297 | 5981 ft | 279 kts | 341° |
| 2026-04-25 14:57 | 39.63178 | -75.54017 | 5976 ft | 266 kts | 338° |
| 2026-04-25 14:58 | 39.64873 | -75.54728 | 6011 ft | 248 kts | 338° |
| 2026-04-25 14:58 | 39.66509 | -75.55415 | 5983 ft | 247 kts | 337° |
| 2026-04-25 14:58 | 39.68140 | -75.56097 | 5983 ft | 246 kts | 338° |
| 2026-04-25 14:58 | 39.69771 | -75.56779 | 5919 ft | 244 kts | 338° |
| 2026-04-25 14:59 | 39.71370 | -75.57448 | 5619 ft | 239 kts | 338° |
| 2026-04-25 14:59 | 39.72945 | -75.58116 | 5234 ft | 238 kts | 338° |
| 2026-04-25 14:59 | 39.74521 | -75.58816 | 4820 ft | 240 kts | 338° |
| 2026-04-25 14:59 | 39.76118 | -75.59554 | 4375 ft | 243 kts | 338° |
| 2026-04-25 15:00 | 39.77157 | -75.60058 | 4105 ft | 242 kts | 338° |
| 2026-04-25 15:00 | 39.79255 | -75.61128 | 3613 ft | 242 kts | 338° |
| 2026-04-25 15:00 | 39.80793 | -75.61946 | 3239 ft | 241 kts | 338° |
| 2026-04-25 15:00 | 39.82329 | -75.62791 | 2985 ft | 239 kts | 338° |
| 2026-04-25 15:01 | 39.83847 | -75.63670 | 2995 ft | 239 kts | 338° |
| 2026-04-25 15:01 | 39.85370 | -75.64557 | 2996 ft | 241 kts | 337° |
| 2026-04-25 15:01 | 39.86906 | -75.65439 | 2998 ft | 241 kts | 337° |
| 2026-04-25 15:01 | 39.88429 | -75.66339 | 2995 ft | 240 kts | 332° |
| 2026-04-25 15:02 | 39.89635 | -75.67800 | 2986 ft | 238 kts | 298° |
| 2026-04-25 15:02 | 39.90060 | -75.69825 | 2987 ft | 230 kts | 263° |
| 2026-04-25 15:02 | 39.89594 | -75.71736 | 2989 ft | 217 kts | 227° |
| 2026-04-25 15:02 | 39.88456 | -75.72883 | 2965 ft | 203 kts | 193° |
| 2026-04-25 15:03 | 39.87078 | -75.73016 | 2968 ft | 199 kts | 171° |
| 2026-04-25 15:03 | 39.85759 | -75.72820 | 2968 ft | 181 kts | 169° |
| 2026-04-25 15:03 | 39.84544 | -75.72596 | 2971 ft | 173 kts | 168° |
| 2026-04-25 15:03 | 39.83434 | -75.72132 | 2979 ft | 166 kts | 141° |
| 2026-04-25 15:04 | 39.82821 | -75.70891 | 2981 ft | 166 kts | 113° |
| 2026-04-25 15:04 | 39.82486 | -75.69442 | 2979 ft | 167 kts | 109° |
| 2026-04-25 15:04 | 39.82186 | -75.67975 | 2978 ft | 169 kts | 108° |
| 2026-04-25 15:04 | 39.81886 | -75.66494 | 2982 ft | 170 kts | 108° |
| 2026-04-25 15:05 | 39.81586 | -75.65012 | 2979 ft | 169 kts | 108° |
| 2026-04-25 15:05 | 39.81286 | -75.63527 | 2980 ft | 170 kts | 108° |
| 2026-04-25 15:05 | 39.80989 | -75.62042 | 2982 ft | 170 kts | 108° |
| 2026-04-25 15:06 | 39.80398 | -75.59071 | 2986 ft | 169 kts | 108° |
| 2026-04-25 15:06 | 39.80139 | -75.57583 | 2984 ft | 170 kts | 99° |
| 2026-04-25 15:06 | 39.80319 | -75.56086 | 2976 ft | 164 kts | 82° |
| 2026-04-25 15:06 | 39.80607 | -75.54682 | 2979 ft | 158 kts | 82° |
| 2026-04-25 15:07 | 39.80887 | -75.53302 | 2980 ft | 158 kts | 82° |
| 2026-04-25 15:07 | 39.81165 | -75.51930 | 2981 ft | 156 kts | 83° |
| 2026-04-25 15:07 | 39.81442 | -75.50566 | 3006 ft | 155 kts | 82° |
| 2026-04-25 15:07 | 39.81718 | -75.49201 | 2990 ft | 156 kts | 82° |
| 2026-04-25 15:08 | 39.81994 | -75.47833 | 2987 ft | 156 kts | 82° |
| 2026-04-25 15:08 | 39.82270 | -75.46466 | 2973 ft | 157 kts | 82° |
| 2026-04-25 15:08 | 39.82548 | -75.45092 | 2836 ft | 156 kts | 82° |
| 2026-04-25 15:08 | 39.82822 | -75.43734 | 2654 ft | 154 kts | 81° |
| 2026-04-25 15:09 | 39.83090 | -75.42409 | 2451 ft | 150 kts | 82° |
| 2026-04-25 15:09 | 39.83352 | -75.41107 | 2254 ft | 148 kts | 81° |
| 2026-04-25 15:09 | 39.83868 | -75.38543 | 1850 ft | 145 kts | 80° |
| 2026-04-25 15:10 | 39.84122 | -75.37285 | 1652 ft | 143 kts | 79° |
| 2026-04-25 15:10 | 39.84374 | -75.36027 | 1450 ft | 143 kts | 79° |
| 2026-04-25 15:10 | 39.84857 | -75.33625 | 1059 ft | 134 kts | 79° |
| 2026-04-25 15:11 | 39.85097 | -75.32460 | 873 ft | 134 kts | 78° |
| 2026-04-25 15:11 | 39.85315 | -75.31281 | 642 ft | 136 kts | 80° |
| 2026-04-25 15:11 | 39.85547 | -75.30096 | 426 ft | 135 kts | 76° |
| 2026-04-25 15:12 | 39.86044 | -75.27735 | 123 ft | 135 kts | 78° |
| 2026-04-25 15:12 | 39.86273 | -75.26587 | 29 ft | 123 kts | 77° |
| 2026-04-25 15:12 | 39.86396 | -75.25933 | 26 ft | 94 kts | 75° |
| 2026-04-25 15:12 | 39.86486 | -75.25509 | 28 ft | 39 kts | 74° |
| 2026-04-25 15:13 | 39.86610 | -75.25194 | 29 ft | 17 kts | 48° |
| 2026-04-25 15:13 | 39.86622 | -75.25177 | 29 ft | 0 kts | 46° |
| 2026-04-25 15:15 | 39.86663 | -75.25110 | 27 ft | 20 kts | 63° |
| 2026-04-25 15:15 | 39.86711 | -75.24936 | 25 ft | 20 kts | 74° |
| 2026-04-25 15:15 | 39.86748 | -75.24757 | 25 ft | 22 kts | 73° |
| 2026-04-25 15:15 | 39.86789 | -75.24555 | 25 ft | 23 kts | 75° |
| 2026-04-25 15:16 | 39.86830 | -75.24348 | 27 ft | 24 kts | 76° |
| 2026-04-25 15:16 | 39.86871 | -75.24139 | 25 ft | 24 kts | 76° |
| 2026-04-25 15:16 | 39.87012 | -75.24055 | 27 ft | 17 kts | 348° |
| 2026-04-25 15:17 | 39.87070 | -75.24073 | 26 ft | 0 kts | 345° |
| 2026-04-25 15:17 | 39.87079 | -75.24076 | 26 ft | 8 kts | 345° |
| 2026-04-25 15:17 | 39.87195 | -75.24129 | 25 ft | 18 kts | 333° |
| 2026-04-25 15:18 | 39.87277 | -75.24181 | 25 ft | 0 kts | 334° |
| 2026-04-25 15:18 | 39.87318 | -75.24208 | 27 ft | 10 kts | 334° |
| 2026-04-25 15:19 | 39.87381 | -75.24231 | 27 ft | 9 kts | 351° |
| 2026-04-25 15:19 | 39.87419 | -75.24235 | 27 ft | 8 kts | 356° |
| 2026-04-25 15:19 | 39.87468 | -75.24272 | 26 ft | 6 kts | 294° |
| 2026-04-25 15:19 | 39.87474 | -75.24301 | 27 ft | 2 kts | 282° |
| 2026-04-25 15:20 | 39.87476 | -75.24316 | 26 ft | 1 kts | 279° |
| 2026-04-25 15:20 | 39.87476 | -75.24317 | 26 ft | 0 kts | 279° |